sensor_id;sensor_type;location;lat;lon;timestamp;pressure;altitude;pressure_sealevel;temperature;humidity
11077;BME280;5591;42.626;23.380;2023-04-28T00:02:01;94410.78;;;8.15;62.85
11077;BME280;5591;42.626;23.380;2023-04-28T00:04:28;94415.34;;;8.59;62.10
11077;BME280;5591;42.626;23.380;2023-04-28T00:06:55;94411.97;;;8.51;61.71
11077;BME280;5591;42.626;23.380;2023-04-28T00:09:22;94409.00;;;8.07;62.68
11077;BME280;5591;42.626;23.380;2023-04-28T00:11:50;94418.16;;;8.03;63.53
11077;BME280;5591;42.626;23.380;2023-04-28T00:14:17;94409.06;;;7.91;64.36
11077;BME280;5591;42.626;23.380;2023-04-28T00:16:44;94423.59;;;7.94;64.25
11077;BME280;5591;42.626;23.380;2023-04-28T00:19:10;94414.59;;;7.96;64.62
11077;BME280;5591;42.626;23.380;2023-04-28T00:21:37;94419.38;;;7.85;65.13
11077;BME280;5591;42.626;23.380;2023-04-28T00:24:04;94416.78;;;7.77;65.57
11077;BME280;5591;42.626;23.380;2023-04-28T00:26:31;94416.69;;;8.01;65.08
11077;BME280;5591;42.626;23.380;2023-04-28T00:28:59;94418.03;;;7.97;65.31
11077;BME280;5591;42.626;23.380;2023-04-28T00:31:26;94407.47;;;7.74;65.59
11077;BME280;5591;42.626;23.380;2023-04-28T00:33:53;94420.28;;;8.00;65.82
11077;BME280;5591;42.626;23.380;2023-04-28T00:36:19;94420.53;;;7.74;66.72
11077;BME280;5591;42.626;23.380;2023-04-28T00:38:46;94423.47;;;7.71;67.33
11077;BME280;5591;42.626;23.380;2023-04-28T00:41:13;94406.66;;;7.66;67.41
11077;BME280;5591;42.626;23.380;2023-04-28T00:43:46;94405.69;;;7.59;68.52
11077;BME280;5591;42.626;23.380;2023-04-28T00:46:20;94428.25;;;7.36;69.30
11077;BME280;5591;42.626;23.380;2023-04-28T00:48:48;94429.88;;;7.53;70.61
11077;BME280;5591;42.626;23.380;2023-04-28T00:51:15;94428.75;;;7.47;71.13
11077;BME280;5591;42.626;23.380;2023-04-28T00:53:42;94423.19;;;7.50;70.31
11077;BME280;5591;42.626;23.380;2023-04-28T00:56:09;94418.97;;;7.18;71.26
11077;BME280;5591;42.626;23.380;2023-04-28T00:58:36;94418.47;;;7.30;72.16
11077;BME280;5591;42.626;23.380;2023-04-28T01:01:04;94436.06;;;7.28;72.13
11077;BME280;5591;42.626;23.380;2023-04-28T01:03:34;94435.41;;;7.26;72.05
11077;BME280;5591;42.626;23.380;2023-04-28T01:06:03;94429.88;;;7.21;72.23
11077;BME280;5591;42.626;23.380;2023-04-28T01:08:30;94439.50;;;7.28;73.59
11077;BME280;5591;42.626;23.380;2023-04-28T01:10:57;94442.91;;;7.05;74.36
11077;BME280;5591;42.626;23.380;2023-04-28T01:13:24;94431.03;;;7.03;73.97
11077;BME280;5591;42.626;23.380;2023-04-28T01:15:51;94441.28;;;6.96;74.66
11077;BME280;5591;42.626;23.380;2023-04-28T01:18:19;94433.13;;;7.15;74.23
11077;BME280;5591;42.626;23.380;2023-04-28T01:20:47;94329.91;;;6.41;71.98
11077;BME280;5591;42.626;23.380;2023-04-28T01:23:15;94439.34;;;7.22;72.02
11077;BME280;5591;42.626;23.380;2023-04-28T01:25:43;94432.81;;;7.02;72.63
11077;BME280;5591;42.626;23.380;2023-04-28T01:28:10;94428.22;;;6.80;74.36
11077;BME280;5591;42.626;23.380;2023-04-28T01:30:37;94436.06;;;7.36;70.76
11077;BME280;5591;42.626;23.380;2023-04-28T01:33:04;94439.34;;;6.98;72.16
11077;BME280;5591;42.626;23.380;2023-04-28T01:35:30;94442.13;;;7.05;70.81
11077;BME280;5591;42.626;23.380;2023-04-28T01:37:57;94454.50;;;7.03;71.85
11077;BME280;5591;42.626;23.380;2023-04-28T01:40:25;94444.06;;;7.11;70.18
11077;BME280;5591;42.626;23.380;2023-04-28T01:42:53;94445.06;;;7.18;70.62
11077;BME280;5591;42.626;23.380;2023-04-28T01:45:20;94446.84;;;7.17;70.29
11077;BME280;5591;42.626;23.380;2023-04-28T01:47:46;94442.59;;;7.24;69.24
11077;BME280;5591;42.626;23.380;2023-04-28T01:50:13;94449.72;;;6.74;71.92
11077;BME280;5591;42.626;23.380;2023-04-28T01:52:40;94432.59;;;6.80;70.85
11077;BME280;5591;42.626;23.380;2023-04-28T01:55:07;94437.84;;;6.96;70.88
11077;BME280;5591;42.626;23.380;2023-04-28T01:57:34;94445.19;;;7.16;69.62
11077;BME280;5591;42.626;23.380;2023-04-28T02:00:03;94441.63;;;7.09;70.73
11077;BME280;5591;42.626;23.380;2023-04-28T02:02:30;94441.31;;;7.20;69.88
11077;BME280;5591;42.626;23.380;2023-04-28T02:04:57;94449.94;;;6.97;71.36
11077;BME280;5591;42.626;23.380;2023-04-28T02:07:24;94447.94;;;6.91;70.86
11077;BME280;5591;42.626;23.380;2023-04-28T02:09:50;94440.13;;;6.91;71.45
11077;BME280;5591;42.626;23.380;2023-04-28T02:12:17;94447.97;;;7.07;69.48
11077;BME280;5591;42.626;23.380;2023-04-28T02:14:44;94446.97;;;6.92;70.27
11077;BME280;5591;42.626;23.380;2023-04-28T02:17:12;94419.97;;;6.35;74.78
11077;BME280;5591;42.626;23.380;2023-04-28T02:19:39;94455.72;;;6.67;74.84
11077;BME280;5591;42.626;23.380;2023-04-28T02:22:05;94452.00;;;6.85;74.61
11077;BME280;5591;42.626;23.380;2023-04-28T02:24:34;94451.81;;;6.63;76.16
11077;BME280;5591;42.626;23.380;2023-04-28T02:27:02;94465.34;;;6.66;76.84
11077;BME280;5591;42.626;23.380;2023-04-28T02:29:29;94461.28;;;6.80;75.62
11077;BME280;5591;42.626;23.380;2023-04-28T02:31:56;94458.69;;;6.72;76.44
11077;BME280;5591;42.626;23.380;2023-04-28T02:34:24;94460.50;;;6.79;76.49
11077;BME280;5591;42.626;23.380;2023-04-28T02:36:51;94461.38;;;6.54;77.04
11077;BME280;5591;42.626;23.380;2023-04-28T02:39:18;94466.66;;;6.70;77.75
11077;BME280;5591;42.626;23.380;2023-04-28T02:41:46;94464.88;;;6.71;76.77
11077;BME280;5591;42.626;23.380;2023-04-28T02:44:13;94461.09;;;6.65;75.78
11077;BME280;5591;42.626;23.380;2023-04-28T02:46:39;94464.66;;;6.64;77.21
11077;BME280;5591;42.626;23.380;2023-04-28T02:49:06;94465.69;;;6.71;76.97
11077;BME280;5591;42.626;23.380;2023-04-28T02:51:34;94468.97;;;6.97;75.17
11077;BME280;5591;42.626;23.380;2023-04-28T02:54:01;94470.25;;;6.69;76.25
11077;BME280;5591;42.626;23.380;2023-04-28T02:56:28;94485.56;;;6.72;76.00
11077;BME280;5591;42.626;23.380;2023-04-28T02:58:55;94478.75;;;6.79;75.30
11077;BME280;5591;42.626;23.380;2023-04-28T03:01:22;94470.44;;;6.84;75.46
11077;BME280;5591;42.626;23.380;2023-04-28T03:03:48;94480.19;;;6.74;76.07
11077;BME280;5591;42.626;23.380;2023-04-28T03:06:15;94484.13;;;6.78;76.16
11077;BME280;5591;42.626;23.380;2023-04-28T03:08:43;94481.50;;;6.78;75.78
11077;BME280;5591;42.626;23.380;2023-04-28T03:11:10;94488.31;;;6.63;77.71
11077;BME280;5591;42.626;23.380;2023-04-28T03:13:37;94478.88;;;6.62;76.52
11077;BME280;5591;42.626;23.380;2023-04-28T03:16:05;94455.31;;;6.38;76.12
11077;BME280;5591;42.626;23.380;2023-04-28T03:18:32;94479.75;;;6.94;75.27
11077;BME280;5591;42.626;23.380;2023-04-28T03:20:59;94481.50;;;6.78;76.10
11077;BME280;5591;42.626;23.380;2023-04-28T03:23:26;94486.50;;;6.55;75.72
11077;BME280;5591;42.626;23.380;2023-04-28T03:25:54;94496.16;;;6.79;73.57
11077;BME280;5591;42.626;23.380;2023-04-28T03:28:20;94500.94;;;6.91;72.24
11077;BME280;5591;42.626;23.380;2023-04-28T03:30:47;94499.63;;;6.79;71.94
11077;BME280;5591;42.626;23.380;2023-04-28T03:33:14;94497.50;;;6.83;71.43
11077;BME280;5591;42.626;23.380;2023-04-28T03:35:41;94512.66;;;6.79;73.01
11077;BME280;5591;42.626;23.380;2023-04-28T03:38:07;94507.25;;;6.81;71.00
11077;BME280;5591;42.626;23.380;2023-04-28T03:40:34;94506.16;;;6.91;71.71
11077;BME280;5591;42.626;23.380;2023-04-28T03:43:02;94513.91;;;6.75;71.48
11077;BME280;5591;42.626;23.380;2023-04-28T03:45:29;94416.22;;;6.30;69.95
11077;BME280;5591;42.626;23.380;2023-04-28T03:47:56;94523.47;;;7.00;68.86
11077;BME280;5591;42.626;23.380;2023-04-28T03:50:23;94531.00;;;6.70;71.00
11077;BME280;5591;42.626;23.380;2023-04-28T03:52:49;94531.13;;;6.94;70.27
11077;BME280;5591;42.626;23.380;2023-04-28T03:55:16;94527.72;;;7.17;68.22
11077;BME280;5591;42.626;23.380;2023-04-28T03:57:43;94532.28;;;6.99;68.32
11077;BME280;5591;42.626;23.380;2023-04-28T04:00:13;94545.72;;;6.79;68.88
11077;BME280;5591;42.626;23.380;2023-04-28T04:02:40;94541.91;;;7.07;67.25
11077;BME280;5591;42.626;23.380;2023-04-28T04:05:07;94582.78;;;6.90;68.77
11077;BME280;5591;42.626;23.380;2023-04-28T04:07:34;94542.22;;;6.96;66.76
11077;BME280;5591;42.626;23.380;2023-04-28T04:10:01;94555.56;;;6.93;67.13
11077;BME280;5591;42.626;23.380;2023-04-28T04:12:27;94559.38;;;7.14;65.82
11077;BME280;5591;42.626;23.380;2023-04-28T04:14:54;94563.06;;;6.96;67.18
11077;BME280;5591;42.626;23.380;2023-04-28T04:17:22;94559.25;;;7.31;64.99
11077;BME280;5591;42.626;23.380;2023-04-28T04:19:49;94559.75;;;7.35;64.53
11077;BME280;5591;42.626;23.380;2023-04-28T04:22:16;94559.75;;;7.59;63.12
11077;BME280;5591;42.626;23.380;2023-04-28T04:24:43;94566.13;;;7.40;64.72
11077;BME280;5591;42.626;23.380;2023-04-28T04:27:10;94567.59;;;7.43;64.35
11077;BME280;5591;42.626;23.380;2023-04-28T04:29:36;94571.34;;;7.40;63.50
11077;BME280;5591;42.626;23.380;2023-04-28T04:32:03;94562.06;;;7.62;62.66
11077;BME280;5591;42.626;23.380;2023-04-28T04:34:32;94572.03;;;7.82;61.91
11077;BME280;5591;42.626;23.380;2023-04-28T04:36:59;94565.97;;;7.66;62.82
11077;BME280;5591;42.626;23.380;2023-04-28T04:39:25;94570.84;;;7.61;61.62
11077;BME280;5591;42.626;23.380;2023-04-28T04:41:52;94579.22;;;7.72;62.47
11077;BME280;5591;42.626;23.380;2023-04-28T04:44:19;94583.94;;;7.69;61.89
11077;BME280;5591;42.626;23.380;2023-04-28T04:46:46;94585.38;;;7.55;61.62
11077;BME280;5591;42.626;23.380;2023-04-28T04:49:13;94578.88;;;7.83;61.37
11077;BME280;5591;42.626;23.380;2023-04-28T04:51:41;94580.03;;;7.97;61.32
11077;BME280;5591;42.626;23.380;2023-04-28T04:54:08;94583.63;;;8.36;59.65
11077;BME280;5591;42.626;23.380;2023-04-28T04:56:35;94582.97;;;7.94;60.41
11077;BME280;5591;42.626;23.380;2023-04-28T04:59:02;94589.69;;;8.20;59.31
11077;BME280;5591;42.626;23.380;2023-04-28T05:01:29;94586.41;;;8.10;58.24
11077;BME280;5591;42.626;23.380;2023-04-28T05:03:55;94487.25;;;7.05;59.42
11077;BME280;5591;42.626;23.380;2023-04-28T05:06:22;94564.69;;;7.62;61.39
11077;BME280;5591;42.626;23.380;2023-04-28T05:08:50;94565.81;;;7.59;62.13
11077;BME280;5591;42.626;23.380;2023-04-28T05:11:17;94585.72;;;8.08;63.02
11077;BME280;5591;42.626;23.380;2023-04-28T05:13:44;94590.00;;;8.01;62.05
11077;BME280;5591;42.626;23.380;2023-04-28T05:16:11;94594.06;;;7.96;63.03
11077;BME280;5591;42.626;23.380;2023-04-28T05:18:37;94582.00;;;8.19;61.38
11077;BME280;5591;42.626;23.380;2023-04-28T05:21:04;94593.56;;;8.48;60.62
11077;BME280;5591;42.626;23.380;2023-04-28T05:23:31;94589.94;;;8.49;61.22
11077;BME280;5591;42.626;23.380;2023-04-28T05:25:59;94604.50;;;8.52;60.37
11077;BME280;5591;42.626;23.380;2023-04-28T05:28:27;94596.97;;;8.57;61.88
11077;BME280;5591;42.626;23.380;2023-04-28T05:30:54;94595.31;;;8.56;61.75
11077;BME280;5591;42.626;23.380;2023-04-28T05:33:21;94600.91;;;8.45;62.04
11077;BME280;5591;42.626;23.380;2023-04-28T05:35:48;94597.34;;;8.06;62.93
11077;BME280;5591;42.626;23.380;2023-04-28T05:38:16;94599.47;;;8.34;63.04
11077;BME280;5591;42.626;23.380;2023-04-28T05:40:42;94577.25;;;8.14;62.04
11077;BME280;5591;42.626;23.380;2023-04-28T05:43:11;94592.75;;;8.08;63.57
11077;BME280;5591;42.626;23.380;2023-04-28T05:45:37;94494.44;;;8.15;61.77
11077;BME280;5591;42.626;23.380;2023-04-28T05:48:04;94596.47;;;8.61;61.04
11077;BME280;5591;42.626;23.380;2023-04-28T05:50:31;94600.28;;;8.43;61.18
11077;BME280;5591;42.626;23.380;2023-04-28T05:52:58;94588.88;;;8.28;60.94
11077;BME280;5591;42.626;23.380;2023-04-28T05:55:25;94602.59;;;8.22;61.42
11077;BME280;5591;42.626;23.380;2023-04-28T05:57:52;94593.09;;;8.29;61.53
11077;BME280;5591;42.626;23.380;2023-04-28T06:00:20;94607.19;;;8.90;61.41
11077;BME280;5591;42.626;23.380;2023-04-28T06:02:47;94587.31;;;8.57;62.57
11077;BME280;5591;42.626;23.380;2023-04-28T06:05:14;94593.22;;;8.51;62.13
11077;BME280;5591;42.626;23.380;2023-04-28T06:07:41;94594.06;;;8.44;61.30
11077;BME280;5591;42.626;23.380;2023-04-28T06:10:09;94482.66;;;8.11;60.27
11077;BME280;5591;42.626;23.380;2023-04-28T06:12:36;94587.44;;;8.72;60.51
11077;BME280;5591;42.626;23.380;2023-04-28T06:15:03;94589.34;;;9.24;58.96
11077;BME280;5591;42.626;23.380;2023-04-28T06:17:32;94585.69;;;8.64;59.39
11077;BME280;5591;42.626;23.380;2023-04-28T06:19:59;94591.91;;;8.55;60.16
11077;BME280;5591;42.626;23.380;2023-04-28T06:22:26;94597.44;;;9.15;58.77
11077;BME280;5591;42.626;23.380;2023-04-28T06:24:53;94599.69;;;8.79;58.12
11077;BME280;5591;42.626;23.380;2023-04-28T06:27:19;94597.59;;;9.13;58.12
11077;BME280;5591;42.626;23.380;2023-04-28T06:29:46;94607.66;;;8.94;57.87
11077;BME280;5591;42.626;23.380;2023-04-28T06:32:13;94571.41;;;9.13;57.06
11077;BME280;5591;42.626;23.380;2023-04-28T06:34:41;94598.81;;;8.95;57.71
11077;BME280;5591;42.626;23.380;2023-04-28T06:37:08;94605.13;;;9.47;56.33
11077;BME280;5591;42.626;23.380;2023-04-28T06:39:34;94602.25;;;9.64;55.76
11077;BME280;5591;42.626;23.380;2023-04-28T06:42:02;94589.59;;;9.07;56.67
11077;BME280;5591;42.626;23.380;2023-04-28T06:44:29;94593.69;;;9.40;56.80
11077;BME280;5591;42.626;23.380;2023-04-28T06:46:56;94595.94;;;9.51;56.59
11077;BME280;5591;42.626;23.380;2023-04-28T06:49:22;94591.47;;;9.29;55.74
11077;BME280;5591;42.626;23.380;2023-04-28T06:51:50;94559.25;;;9.51;55.37
11077;BME280;5591;42.626;23.380;2023-04-28T06:54:17;94576.94;;;9.49;54.22
11077;BME280;5591;42.626;23.380;2023-04-28T06:56:44;94595.66;;;9.90;54.19
11077;BME280;5591;42.626;23.380;2023-04-28T06:59:11;94589.75;;;10.56;53.62
11077;BME280;5591;42.626;23.380;2023-04-28T07:01:37;94490.81;;;9.31;54.16
11077;BME280;5591;42.626;23.380;2023-04-28T07:04:04;94589.63;;;10.49;52.90
11077;BME280;5591;42.626;23.380;2023-04-28T07:06:31;94590.78;;;10.10;53.65
11077;BME280;5591;42.626;23.380;2023-04-28T07:08:59;94586.88;;;10.43;52.73
11077;BME280;5591;42.626;23.380;2023-04-28T07:11:26;94597.81;;;9.87;53.11
11077;BME280;5591;42.626;23.380;2023-04-28T07:13:52;94595.25;;;10.01;53.43
11077;BME280;5591;42.626;23.380;2023-04-28T07:16:19;94600.44;;;10.32;52.85
11077;BME280;5591;42.626;23.380;2023-04-28T07:18:46;94591.09;;;10.66;52.92
11077;BME280;5591;42.626;23.380;2023-04-28T07:21:13;94584.69;;;10.17;53.45
11077;BME280;5591;42.626;23.380;2023-04-28T07:23:40;94574.63;;;10.87;51.82
11077;BME280;5591;42.626;23.380;2023-04-28T07:26:09;94585.56;;;10.47;52.33
11077;BME280;5591;42.626;23.380;2023-04-28T07:28:35;94588.03;;;10.92;52.37
11077;BME280;5591;42.626;23.380;2023-04-28T07:31:02;94587.94;;;11.00;51.90
11077;BME280;5591;42.626;23.380;2023-04-28T07:33:29;94584.94;;;10.88;52.06
11077;BME280;5591;42.626;23.380;2023-04-28T07:35:56;94583.09;;;10.45;52.28
11077;BME280;5591;42.626;23.380;2023-04-28T07:38:22;94581.53;;;10.88;51.84
11077;BME280;5591;42.626;23.380;2023-04-28T07:40:49;94582.59;;;10.79;51.79
11077;BME280;5591;42.626;23.380;2023-04-28T07:43:17;94581.31;;;10.89;51.75
11077;BME280;5591;42.626;23.380;2023-04-28T07:45:44;94580.00;;;11.43;50.28
11077;BME280;5591;42.626;23.380;2023-04-28T07:48:13;94575.88;;;11.34;49.39
11077;BME280;5591;42.626;23.380;2023-04-28T07:50:40;94586.53;;;11.47;50.52
11077;BME280;5591;42.626;23.380;2023-04-28T07:53:07;94514.88;;;11.03;50.13
11077;BME280;5591;42.626;23.380;2023-04-28T07:55:34;94581.06;;;11.49;49.10
11077;BME280;5591;42.626;23.380;2023-04-28T07:58:01;94577.38;;;11.58;49.66
11077;BME280;5591;42.626;23.380;2023-04-28T08:00:29;94581.59;;;12.63;48.09
11077;BME280;5591;42.626;23.380;2023-04-28T08:02:56;94568.50;;;12.22;48.21
11077;BME280;5591;42.626;23.380;2023-04-28T08:05:23;94585.22;;;11.93;48.90
11077;BME280;5591;42.626;23.380;2023-04-28T08:07:50;94588.84;;;12.34;48.12
11077;BME280;5591;42.626;23.380;2023-04-28T08:10:16;94509.28;;;12.32;47.13
11077;BME280;5591;42.626;23.380;2023-04-28T08:12:43;94580.09;;;12.54;46.80
11077;BME280;5591;42.626;23.380;2023-04-28T08:15:10;94556.53;;;13.01;46.01
11077;BME280;5591;42.626;23.380;2023-04-28T08:17:38;94585.53;;;13.01;45.60
11077;BME280;5591;42.626;23.380;2023-04-28T08:20:06;94582.47;;;12.98;45.86
11077;BME280;5591;42.626;23.380;2023-04-28T08:22:33;94577.44;;;13.43;44.96
11077;BME280;5591;42.626;23.380;2023-04-28T08:25:00;94573.34;;;14.01;43.70
11077;BME280;5591;42.626;23.380;2023-04-28T08:27:27;94577.84;;;14.20;43.02
11077;BME280;5591;42.626;23.380;2023-04-28T08:29:54;94576.41;;;14.11;44.00
11077;BME280;5591;42.626;23.380;2023-04-28T08:32:21;94572.97;;;13.50;43.87
11077;BME280;5591;42.626;23.380;2023-04-28T08:34:49;94579.75;;;13.25;44.03
11077;BME280;5591;42.626;23.380;2023-04-28T08:37:16;94574.31;;;13.27;43.78
11077;BME280;5591;42.626;23.380;2023-04-28T08:39:42;94572.19;;;13.09;43.60
11077;BME280;5591;42.626;23.380;2023-04-28T08:42:09;94577.06;;;13.12;44.61
11077;BME280;5591;42.626;23.380;2023-04-28T08:44:37;94555.78;;;12.25;44.48
11077;BME280;5591;42.626;23.380;2023-04-28T08:47:11;94568.13;;;13.07;44.88
11077;BME280;5591;42.626;23.380;2023-04-28T08:49:39;94567.06;;;13.01;44.84
11077;BME280;5591;42.626;23.380;2023-04-28T08:52:10;94548.50;;;12.54;44.48
11077;BME280;5591;42.626;23.380;2023-04-28T08:54:38;94564.25;;;12.75;44.75
11077;BME280;5591;42.626;23.380;2023-04-28T08:57:08;94561.38;;;12.98;44.14
11077;BME280;5591;42.626;23.380;2023-04-28T08:59:38;94562.97;;;13.33;43.87
11077;BME280;5591;42.626;23.380;2023-04-28T09:02:06;94561.31;;;13.25;43.37
11077;BME280;5591;42.626;23.380;2023-04-28T09:04:33;94560.75;;;13.36;44.02
11077;BME280;5591;42.626;23.380;2023-04-28T09:07:00;94560.91;;;13.28;43.76
11077;BME280;5591;42.626;23.380;2023-04-28T09:09:29;94552.00;;;13.29;43.08
11077;BME280;5591;42.626;23.380;2023-04-28T09:11:57;94560.94;;;13.35;44.09
11077;BME280;5591;42.626;23.380;2023-04-28T09:14:25;94549.97;;;13.98;43.01
11077;BME280;5591;42.626;23.380;2023-04-28T09:16:52;94540.69;;;14.60;41.98
11077;BME280;5591;42.626;23.380;2023-04-28T09:19:19;94534.44;;;13.49;42.75
11077;BME280;5591;42.626;23.380;2023-04-28T09:21:48;94489.50;;;12.76;44.51
11077;BME280;5591;42.626;23.380;2023-04-28T09:24:30;94526.97;;;13.59;43.26
11077;BME280;5591;42.626;23.380;2023-04-28T09:26:57;94536.03;;;14.30;42.39
11077;BME280;5591;42.626;23.380;2023-04-28T09:29:24;94479.91;;;13.56;42.91
11077;BME280;5591;42.626;23.380;2023-04-28T09:31:50;94525.28;;;14.25;43.71
11077;BME280;5591;42.626;23.380;2023-04-28T09:34:18;94536.81;;;14.63;42.03
11077;BME280;5591;42.626;23.380;2023-04-28T09:36:44;94514.91;;;15.38;40.96
11077;BME280;5591;42.626;23.380;2023-04-28T09:39:11;94522.84;;;15.25;41.66
11077;BME280;5591;42.626;23.380;2023-04-28T09:41:40;94511.47;;;14.23;42.48
11077;BME280;5591;42.626;23.380;2023-04-28T09:44:15;94507.75;;;14.82;42.26
11077;BME280;5591;42.626;23.380;2023-04-28T09:46:43;94513.81;;;14.89;41.82
11077;BME280;5591;42.626;23.380;2023-04-28T09:49:10;94478.94;;;13.90;42.34
11077;BME280;5591;42.626;23.380;2023-04-28T09:51:37;94510.81;;;14.08;42.15
11077;BME280;5591;42.626;23.380;2023-04-28T09:54:05;94512.88;;;14.38;41.65
11077;BME280;5591;42.626;23.380;2023-04-28T09:56:33;94512.88;;;14.25;41.41
11077;BME280;5591;42.626;23.380;2023-04-28T09:59:04;94496.03;;;15.15;40.62
11077;BME280;5591;42.626;23.380;2023-04-28T10:01:32;94486.53;;;15.52;40.29
11077;BME280;5591;42.626;23.380;2023-04-28T10:04:03;94400.66;;;15.17;39.91
11077;BME280;5591;42.626;23.380;2023-04-28T10:06:30;94482.19;;;15.70;39.61
11077;BME280;5591;42.626;23.380;2023-04-28T10:08:59;94477.28;;;14.67;40.81
11077;BME280;5591;42.626;23.380;2023-04-28T10:11:27;94479.63;;;15.00;40.40
11077;BME280;5591;42.626;23.380;2023-04-28T10:13:54;94475.69;;;14.59;41.02
11077;BME280;5591;42.626;23.380;2023-04-28T10:16:23;94483.72;;;14.84;41.48
11077;BME280;5591;42.626;23.380;2023-04-28T10:18:52;94480.75;;;14.61;40.23
11077;BME280;5591;42.626;23.380;2023-04-28T10:21:21;94481.81;;;14.40;40.73
11077;BME280;5591;42.626;23.380;2023-04-28T10:24:06;94444.47;;;14.93;39.57
11077;BME280;5591;42.626;23.380;2023-04-28T10:27:02;94484.41;;;14.53;38.84
11077;BME280;5591;42.626;23.380;2023-04-28T10:29:31;94475.19;;;15.45;38.09
11077;BME280;5591;42.626;23.380;2023-04-28T10:32:20;94471.22;;;14.53;39.35
11077;BME280;5591;42.626;23.380;2023-04-28T10:34:47;94468.75;;;14.71;40.29
11077;BME280;5591;42.626;23.380;2023-04-28T10:37:15;94467.00;;;15.02;40.17
11077;BME280;5591;42.626;23.380;2023-04-28T10:42:53;94462.00;;;15.38;38.92
11077;BME280;5591;42.626;23.380;2023-04-28T10:48:54;94453.75;;;16.15;38.86
11077;BME280;5591;42.626;23.380;2023-04-28T10:51:28;94440.03;;;16.24;38.44
11077;BME280;5591;42.626;23.380;2023-04-28T10:54:15;94432.91;;;16.49;38.53
11077;BME280;5591;42.626;23.380;2023-04-28T10:57:15;94435.06;;;16.34;38.65
11077;BME280;5591;42.626;23.380;2023-04-28T10:59:42;94437.91;;;15.53;39.27
11077;BME280;5591;42.626;23.380;2023-04-28T11:02:40;94443.56;;;15.56;39.68
11077;BME280;5591;42.626;23.380;2023-04-28T11:05:12;94446.22;;;15.12;39.49
11077;BME280;5591;42.626;23.380;2023-04-28T11:07:39;94433.16;;;15.30;38.80
11077;BME280;5591;42.626;23.380;2023-04-28T11:10:07;94429.53;;;15.87;37.59
11077;BME280;5591;42.626;23.380;2023-04-28T11:12:33;94429.22;;;15.77;38.22
11077;BME280;5591;42.626;23.380;2023-04-28T11:15:11;94341.75;;;15.41;38.80
11077;BME280;5591;42.626;23.380;2023-04-28T11:17:39;94372.56;;;15.22;38.11
11077;BME280;5591;42.626;23.380;2023-04-28T11:20:12;94416.69;;;16.39;37.14
11077;BME280;5591;42.626;23.380;2023-04-28T11:22:40;94420.94;;;16.83;37.18
11077;BME280;5591;42.626;23.380;2023-04-28T11:25:08;94417.66;;;17.75;35.86
11077;BME280;5591;42.626;23.380;2023-04-28T11:27:35;94388.75;;;17.27;35.33
11077;BME280;5591;42.626;23.380;2023-04-28T11:30:02;94407.91;;;17.47;36.09
11077;BME280;5591;42.626;23.380;2023-04-28T11:32:31;94397.63;;;19.45;33.97
11077;BME280;5591;42.626;23.380;2023-04-28T11:34:58;94405.78;;;21.41;31.69
11077;BME280;5591;42.626;23.380;2023-04-28T11:37:26;94398.63;;;21.04;31.77
11077;BME280;5591;42.626;23.380;2023-04-28T11:39:53;94394.09;;;21.47;30.90
11077;BME280;5591;42.626;23.380;2023-04-28T11:42:21;94401.31;;;19.05;32.83
11077;BME280;5591;42.626;23.380;2023-04-28T11:44:51;94405.56;;;18.32;34.11
11077;BME280;5591;42.626;23.380;2023-04-28T11:47:28;94397.31;;;18.91;32.79
11077;BME280;5591;42.626;23.380;2023-04-28T11:49:55;94395.78;;;19.46;32.28
11077;BME280;5591;42.626;23.380;2023-04-28T11:52:23;94388.75;;;19.84;31.09
11077;BME280;5591;42.626;23.380;2023-04-28T11:54:56;94389.25;;;19.53;32.20
11077;BME280;5591;42.626;23.380;2023-04-28T11:57:24;94390.44;;;20.89;30.45
11077;BME280;5591;42.626;23.380;2023-04-28T11:59:51;94375.84;;;22.19;28.99
11077;BME280;5591;42.626;23.380;2023-04-28T12:02:24;94381.44;;;20.57;30.48
11077;BME280;5591;42.626;23.380;2023-04-28T12:04:53;94372.63;;;22.17;28.71
11077;BME280;5591;42.626;23.380;2023-04-28T12:07:20;94369.16;;;23.45;28.10
11077;BME280;5591;42.626;23.380;2023-04-28T12:09:48;94370.25;;;23.03;27.22
11077;BME280;5591;42.626;23.380;2023-04-28T12:12:36;94350.09;;;21.07;27.70
11077;BME280;5591;42.626;23.380;2023-04-28T12:15:04;94362.94;;;21.79;27.10
11077;BME280;5591;42.626;23.380;2023-04-28T12:17:32;94353.19;;;24.35;26.33
11077;BME280;5591;42.626;23.380;2023-04-28T12:20:00;94358.56;;;22.00;27.76
11077;BME280;5591;42.626;23.380;2023-04-28T12:22:27;94353.47;;;22.30;27.70
11077;BME280;5591;42.626;23.380;2023-04-28T12:25:04;94344.47;;;21.78;28.37
11077;BME280;5591;42.626;23.380;2023-04-28T12:27:33;94280.34;;;20.98;29.30
11077;BME280;5591;42.626;23.380;2023-04-28T12:30:02;94348.91;;;21.94;28.56
11077;BME280;5591;42.626;23.380;2023-04-28T12:32:37;94334.69;;;23.84;27.36
11077;BME280;5591;42.626;23.380;2023-04-28T12:35:05;94341.38;;;24.81;26.70
11077;BME280;5591;42.626;23.380;2023-04-28T12:37:32;94337.09;;;26.92;25.02
11077;BME280;5591;42.626;23.380;2023-04-28T12:39:59;94313.03;;;25.72;25.28
11077;BME280;5591;42.626;23.380;2023-04-28T12:42:26;94338.13;;;23.03;26.55
11077;BME280;5591;42.626;23.380;2023-04-28T12:44:53;94334.59;;;23.49;26.87
11077;BME280;5591;42.626;23.380;2023-04-28T12:47:21;94335.81;;;23.16;27.42
11077;BME280;5591;42.626;23.380;2023-04-28T12:49:48;94334.69;;;24.39;26.08
11077;BME280;5591;42.626;23.380;2023-04-28T12:52:18;94350.31;;;22.01;28.26
11077;BME280;5591;42.626;23.380;2023-04-28T12:54:45;94325.84;;;24.18;27.33
11077;BME280;5591;42.626;23.380;2023-04-28T12:57:12;94318.88;;;23.87;28.02
11077;BME280;5591;42.626;23.380;2023-04-28T12:59:39;94317.59;;;26.43;26.03
11077;BME280;5591;42.626;23.380;2023-04-28T13:02:06;94317.75;;;25.95;25.82
11077;BME280;5591;42.626;23.380;2023-04-28T13:04:34;94318.09;;;25.30;26.07
11077;BME280;5591;42.626;23.380;2023-04-28T13:07:01;94303.59;;;23.93;27.18
11077;BME280;5591;42.626;23.380;2023-04-28T13:09:28;94311.31;;;23.74;27.48
11077;BME280;5591;42.626;23.380;2023-04-28T13:11:54;94271.97;;;22.94;27.59
11077;BME280;5591;42.626;23.380;2023-04-28T13:14:21;94299.13;;;23.17;27.68
11077;BME280;5591;42.626;23.380;2023-04-28T13:16:49;94297.47;;;25.21;26.34